Time;durP1;ratioP1;P1;durP2;ratioP2;P2;SDS_P1;SDS_P2;PMS_P1;PMS_P2;Temp;Humidity;BMP_temperature;BMP_pressure;BME280_temperature;BME280_humidity;BME280_pressure;Samples;Min_cycle;Max_cycle;Signal;HPM_P1;HPM_P2
2024/01/17 00:02:03;;;;;;;;;;;;;;;4.47;66.63;99217.47;7360520;19;19923;-63
2024/01/17 00:04:28;;;;;;;;;;;;;;;4.48;66.58;99211.41;7363334;19;20706;-62
2024/01/17 00:06:55;;;;;;;;;;;;;;;4.48;66.63;99213.97;7365295;19;20017;-63
2024/01/17 00:09:20;;;;;;;;;;;;;;;4.48;66.45;99219.16;7359802;19;19911;-62
2024/01/17 00:11:46;;;;;;;;;;;;;;;4.45;66.37;99209.72;7364295;19;19919;-63
2024/01/17 00:14:11;;;;;;;;;;;;;;;4.42;66.37;99210.66;7363172;19;19911;-63
2024/01/17 00:16:37;;;;;;;;;;;;;;;4.38;66.52;99209.00;7366142;19;20356;-61
2024/01/17 00:19:02;;;;;;;;;;;;;;;4.33;66.31;99205.66;7369670;19;19926;-62
2024/01/17 00:21:28;;;;;;;;;;;;;;;4.29;66.39;99208.34;7363225;19;19919;-62
2024/01/17 00:23:53;;;;;;;;;;;;;;;4.23;66.02;99209.31;7360510;19;19931;-62
2024/01/17 00:26:18;;;;;;;;;;;;;;;4.17;66.15;99209.47;7367358;19;19911;-62
2024/01/17 00:28:44;;;;;;;;;;;;;;;4.12;66.40;99206.13;7365340;19;20320;-63
2024/01/17 00:31:09;;;;;;;;;;;;;;;4.06;66.56;99201.94;7364308;19;20015;-63
2024/01/17 00:33:35;;;;;;;;;;;;;;;4.01;66.63;99205.50;7363278;19;19927;-63
2024/01/17 00:36:01;;;;;;;;;;;;;;;3.95;66.24;99200.44;7366879;19;19919;-63
2024/01/17 00:38:26;;;;;;;;;;;;;;;3.89;66.38;99193.66;7363983;19;19922;-63
2024/01/17 00:40:51;;;;;;;;;;;;;;;3.83;66.51;99197.22;7367109;19;19923;-62
2024/01/17 00:43:16;;;;;;;;;;;;;;;3.78;66.32;99204.19;7362901;19;19927;-62
2024/01/17 00:45:42;;;;;;;;;;;;;;;3.73;66.75;99202.59;7364584;19;19990;-62
2024/01/17 00:48:07;;;;;;;;;;;;;;;3.67;66.65;99203.56;7363067;19;19926;-62
2024/01/17 00:50:32;;;;;;;;;;;;;;;3.61;66.88;99188.19;7367602;19;20601;-62
2024/01/17 00:52:57;;;;;;;;;;;;;;;3.50;66.56;99190.13;7359058;19;19963;-62
2024/01/17 00:55:23;;;;;;;;;;;;;;;3.51;66.37;99196.97;7366615;19;19919;-61
2024/01/17 00:57:48;;;;;;;;;;;;;;;3.46;66.30;99201.38;7360113;19;19930;-62
2024/01/17 01:00:13;;;;;;;;;;;;;;;3.39;66.71;99198.88;7362566;19;19927;-61
2024/01/17 01:02:39;;;;;;;;;;;;;;;3.35;66.89;99196.41;7362357;19;19918;-62
2024/01/17 01:05:04;;;;;;;;;;;;;;;3.29;66.53;99192.19;7358711;19;20419;-63
2024/01/17 01:07:29;;;;;;;;;;;;;;;3.24;66.89;99186.25;7367524;19;20251;-63
2024/01/17 01:09:55;;;;;;;;;;;;;;;3.19;66.59;99188.06;7362889;19;20572;-62
2024/01/17 01:12:20;;;;;;;;;;;;;;;3.15;66.83;99191.59;7363904;19;19975;-63
2024/01/17 01:14:45;;;;;;;;;;;;;;;3.10;66.71;99180.50;7368699;19;19919;-63
2024/01/17 01:17:11;;;;;;;;;;;;;;;3.07;66.83;99175.38;7369588;19;19915;-62
2024/01/17 01:19:36;;;;;;;;;;;;;;;3.02;67.30;99182.34;7366413;19;19946;-63
2024/01/17 01:22:01;;;;;;;;;;;;;;;2.98;66.73;99171.22;7368074;19;19927;-63
2024/01/17 01:24:26;;;;;;;;;;;;;;;2.95;67.30;99175.59;7368054;19;20864;-63
2024/01/17 01:26:52;;;;;;;;;;;;;;;2.91;66.76;99174.78;7368088;19;19917;-62
2024/01/17 01:29:17;;;;;;;;;;;;;;;2.88;67.20;99171.41;7371939;19;19934;-62
2024/01/17 01:31:42;;;;;;;;;;;;;;;2.83;67.33;99167.16;7375993;19;20012;-62
2024/01/17 01:34:08;;;;;;;;;;;;;;;2.80;67.05;99163.81;7370293;19;19938;-62
2024/01/17 01:36:33;;;;;;;;;;;;;;;2.76;67.26;99159.56;7372053;19;19922;-63
2024/01/17 01:38:59;;;;;;;;;;;;;;;2.72;67.03;99163.91;7364442;19;19926;-63
2024/01/17 01:41:24;;;;;;;;;;;;;;;2.69;67.46;99158.81;7371806;19;20320;-62
2024/01/17 01:43:50;;;;;;;;;;;;;;;2.65;67.25;99156.31;7369573;19;19919;-62
2024/01/17 01:46:20;;;;;;;;;;;;;;;2.60;67.21;99158.97;7369098;19;19974;-62
2024/01/17 01:48:48;;;;;;;;;;;;;;;2.56;67.06;99147.84;7369179;19;20296;-62
2024/01/17 01:51:13;;;;;;;;;;;;;;;2.53;67.04;99157.31;7363915;19;19927;-63
2024/01/17 01:53:41;;;;;;;;;;;;;;;2.49;67.66;99155.69;7370224;19;19955;-63
2024/01/17 01:56:07;;;;;;;;;;;;;;;2.46;67.34;99156.56;7363639;19;20384;-63
2024/01/17 01:58:33;;;;;;;;;;;;;;;2.43;67.40;99145.47;7373307;19;19928;-62
2024/01/17 02:00:59;;;;;;;;;;;;;;;2.39;67.27;99148.97;7368405;19;19919;-62
2024/01/17 02:03:25;;;;;;;;;;;;;;;2.29;67.56;99141.38;7368562;19;19915;-62
2024/01/17 02:05:50;;;;;;;;;;;;;;;2.33;67.27;99155.03;7370603;19;19937;-63
2024/01/17 02:08:16;;;;;;;;;;;;;;;2.29;67.39;99154.25;7365491;19;19911;-61
2024/01/17 02:10:41;;;;;;;;;;;;;;;2.25;67.91;99152.59;7377602;19;19946;-62
2024/01/17 02:13:07;;;;;;;;;;;;;;;2.23;67.80;99148.31;7364894;19;19926;-62
2024/01/17 02:15:32;;;;;;;;;;;;;;;2.19;67.62;99142.38;7368068;19;19914;-62
2024/01/17 02:17:58;;;;;;;;;;;;;;;2.17;67.57;99138.09;7367834;19;21753;-61
2024/01/17 02:20:23;;;;;;;;;;;;;;;2.15;67.87;99140.72;7372547;19;19931;-63
2024/01/17 02:22:48;;;;;;;;;;;;;;;2.14;67.99;99136.44;7367782;19;19933;-61
2024/01/17 02:25:14;;;;;;;;;;;;;;;2.12;67.92;99140.75;7368447;19;19940;-63
2024/01/17 02:27:39;;;;;;;;;;;;;;;2.10;67.98;99133.94;7369908;19;19936;-63
2024/01/17 02:30:06;;;;;;;;;;;;;;;2.06;68.05;99140.81;7367228;19;19926;-63
2024/01/17 02:32:32;;;;;;;;;;;;;;;2.04;67.58;99140.00;7365678;19;19923;-63
2024/01/17 02:34:57;;;;;;;;;;;;;;;2.00;68.03;99128.91;7368707;19;19986;-63
2024/01/17 02:37:23;;;;;;;;;;;;;;;1.98;67.82;99127.22;7367452;19;19926;-62
2024/01/17 02:39:48;;;;;;;;;;;;;;;1.94;67.63;99126.41;7362446;19;19926;-61
2024/01/17 02:42:13;;;;;;;;;;;;;;;1.93;67.93;99124.72;7368372;19;19919;-62
2024/01/17 02:44:38;;;;;;;;;;;;;;;1.91;67.68;99120.44;7369314;19;20405;-62
2024/01/17 02:47:04;;;;;;;;;;;;;;;1.88;67.87;99115.34;7364583;19;19933;-63
2024/01/17 02:49:29;;;;;;;;;;;;;;;1.86;67.97;99117.91;7369797;19;19990;-61
2024/01/17 02:51:54;;;;;;;;;;;;;;;1.84;67.87;99118.81;7359445;19;19919;-62
2024/01/17 02:54:20;;;;;;;;;;;;;;;1.81;68.10;99110.25;7367677;19;19934;-62
2024/01/17 02:56:45;;;;;;;;;;;;;;;1.80;67.99;99113.72;7361860;19;19931;-62
2024/01/17 02:59:10;;;;;;;;;;;;;;;1.76;67.96;99106.88;7361979;19;19919;-62
2024/01/17 03:01:35;;;;;;;;;;;;;;;1.74;67.91;99108.66;7368954;19;20523;-62
2024/01/17 03:04:01;;;;;;;;;;;;;;;1.72;67.84;99105.22;7366922;19;20286;-63
2024/01/17 03:06:26;;;;;;;;;;;;;;;1.69;67.95;99100.13;7365834;19;19923;-64
2024/01/17 03:08:52;;;;;;;;;;;;;;;1.66;67.89;99099.31;7367982;19;19958;-63
2024/01/17 03:11:17;;;;;;;;;;;;;;;1.63;67.99;99100.22;7364588;19;19922;-62
2024/01/17 03:13:42;;;;;;;;;;;;;;;1.61;68.32;99101.09;7373373;19;20039;-63
2024/01/17 03:16:07;;;;;;;;;;;;;;;1.58;67.93;99096.84;7361518;19;19922;-62
2024/01/17 03:18:33;;;;;;;;;;;;;;;1.56;68.07;99103.72;7368693;19;19926;-62
2024/01/17 03:20:58;;;;;;;;;;;;;;;1.53;68.04;99096.06;7361249;19;20384;-63
2024/01/17 03:23:23;;;;;;;;;;;;;;;1.51;68.19;99095.19;7366341;19;19915;-61
2024/01/17 03:25:48;;;;;;;;;;;;;;;1.49;68.26;99089.22;7367056;19;19930;-62
2024/01/17 03:28:14;;;;;;;;;;;;;;;1.47;68.16;99083.25;7363945;19;19922;-62
2024/01/17 03:30:39;;;;;;;;;;;;;;;1.44;68.39;99083.28;7362244;19;19922;-62
2024/01/17 03:33:04;;;;;;;;;;;;;;;1.42;68.25;99082.44;7367118;19;20419;-63
2024/01/17 03:35:29;;;;;;;;;;;;;;;1.41;68.03;99073.03;7342407;19;20454;-63
2024/01/17 03:37:55;;;;;;;;;;;;;;;1.39;68.18;99070.47;7367640;19;19950;-63
2024/01/17 03:40:20;;;;;;;;;;;;;;;1.37;68.34;99072.22;7363684;19;20302;-62
2024/01/17 03:42:45;;;;;;;;;;;;;;;1.34;68.22;99068.84;7367652;19;19927;-62
2024/01/17 03:45:11;;;;;;;;;;;;;;;1.32;68.55;99065.41;7364770;19;20387;-62
2024/01/17 03:47:36;;;;;;;;;;;;;;;1.29;68.21;99069.75;7359207;19;19914;-63
2024/01/17 03:50:01;;;;;;;;;;;;;;;1.27;68.40;99071.50;7364863;19;20279;-62
2024/01/17 03:52:27;;;;;;;;;;;;;;;1.24;68.12;99066.38;7369653;19;19922;-62
2024/01/17 03:54:52;;;;;;;;;;;;;;;1.23;68.62;99067.25;7363480;19;19953;-63
2024/01/17 03:57:17;;;;;;;;;;;;;;;1.21;68.40;99074.09;7365489;19;19942;-62
2024/01/17 03:59:43;;;;;;;;;;;;;;;1.21;68.30;99063.81;7366992;19;19929;-64
2024/01/17 04:02:08;;;;;;;;;;;;;;;1.18;68.46;99066.44;7365142;19;19919;-62
2024/01/17 04:04:34;;;;;;;;;;;;;;;1.16;68.21;99057.88;7369569;19;19922;-62
2024/01/17 04:06:59;;;;;;;;;;;;;;;1.15;68.58;99060.47;7356122;19;20535;-62
2024/01/17 04:09:24;;;;;;;;;;;;;;;1.12;68.38;99056.22;7364765;19;19915;-61
2024/01/17 04:11:50;;;;;;;;;;;;;;;1.10;68.64;99057.94;7364141;19;19915;-62
2024/01/17 04:14:15;;;;;;;;;;;;;;;1.09;68.51;99050.25;7365863;19;19919;-62
2024/01/17 04:16:40;;;;;;;;;;;;;;;1.07;68.51;99047.72;7364953;19;19927;-62
2024/01/17 04:19:07;;;;;;;;;;;;;;;1.07;68.58;99052.00;7360742;19;19930;-62
2024/01/17 04:21:32;;;;;;;;;;;;;;;1.05;68.57;99039.16;7357755;19;20328;-63
2024/01/17 04:23:57;;;;;;;;;;;;;;;1.04;68.65;99042.59;7365587;19;19921;-61
2024/01/17 04:26:23;;;;;;;;;;;;;;;1.03;68.46;99035.75;7365950;19;19939;-62
2024/01/17 04:28:50;;;;;;;;;;;;;;;1.01;68.63;99038.38;7336630;19;20002;-62
2024/01/17 04:31:26;;;;;;;;;;;;;;;1.01;68.83;99037.47;7369917;19;20646;-63
2024/01/17 04:33:52;;;;;;;;;;;;;;;1.00;68.38;99035.78;7372663;19;19943;-62
2024/01/17 04:36:18;;;;;;;;;;;;;;;0.99;68.76;99039.22;7370298;19;19915;-61
2024/01/17 04:38:43;;;;;;;;;;;;;;;0.97;68.54;99046.13;7355051;19;19915;-61
2024/01/17 04:41:12;;;;;;;;;;;;;;;0.96;68.73;99034.09;7365188;19;20337;-63
2024/01/17 04:43:38;;;;;;;;;;;;;;;0.94;68.57;99025.56;7364177;19;19927;-62
2024/01/17 04:46:04;;;;;;;;;;;;;;;0.92;68.77;99029.91;7368151;19;20566;-62
2024/01/17 04:48:29;;;;;;;;;;;;;;;0.90;68.66;99013.63;7376226;19;19919;-62
2024/01/17 04:50:58;;;;;;;;;;;;;;;0.87;68.62;99017.09;7368679;19;20727;-61
2024/01/17 04:53:24;;;;;;;;;;;;;;;0.87;68.62;99023.94;7373894;19;20259;-62
2024/01/17 04:55:49;;;;;;;;;;;;;;;0.84;68.64;99018.84;7378078;19;19922;-61
2024/01/17 04:58:14;;;;;;;;;;;;;;;0.82;68.52;99012.88;7372279;19;19923;-61
2024/01/17 05:00:43;;;;;;;;;;;;;;;0.80;68.35;99012.88;7361433;19;19926;-63
2024/01/17 05:03:08;;;;;;;;;;;;;;;0.76;68.77;99001.78;7369227;19;19926;-62
2024/01/17 05:05:33;;;;;;;;;;;;;;;0.66;68.83;98995.06;7373190;19;19931;-62
2024/01/17 05:07:59;;;;;;;;;;;;;;;0.71;68.59;98997.53;7361886;19;19938;-63
2024/01/17 05:10:24;;;;;;;;;;;;;;;0.68;68.37;99001.00;7373026;19;19918;-62
2024/01/17 05:12:49;;;;;;;;;;;;;;;0.66;68.33;98995.06;7370945;19;19994;-62
2024/01/17 05:15:14;;;;;;;;;;;;;;;0.62;68.55;98989.94;7368937;19;19911;-62
2024/01/17 05:17:39;;;;;;;;;;;;;;;0.61;68.45;98996.81;7372868;19;20655;-61
2024/01/17 05:20:05;;;;;;;;;;;;;;;0.58;68.60;98994.25;7365906;19;19911;-62
2024/01/17 05:22:31;;;;;;;;;;;;;;;0.55;68.69;98991.72;7369755;19;19925;-62
2024/01/17 05:24:56;;;;;;;;;;;;;;;0.53;68.74;98988.31;7372280;19;19918;-62
2024/01/17 05:27:21;;;;;;;;;;;;;;;0.51;68.65;98990.91;7375321;19;19921;-63
2024/01/17 05:29:46;;;;;;;;;;;;;;;0.48;68.85;98979.81;7365922;19;20246;-62
2024/01/17 05:32:12;;;;;;;;;;;;;;;0.47;68.66;98985.81;7372786;19;20013;-63
2024/01/17 05:34:37;;;;;;;;;;;;;;;0.44;68.83;98984.13;7365966;19;19950;-61
2024/01/17 05:37:03;;;;;;;;;;;;;;;0.43;68.97;98986.69;7371359;19;20323;-62
2024/01/17 05:39:28;;;;;;;;;;;;;;;0.40;68.57;98986.72;7355893;19;19957;-61
2024/01/17 05:41:53;;;;;;;;;;;;;;;0.39;68.51;98982.47;7372736;19;19914;-63
2024/01/17 05:44:19;;;;;;;;;;;;;;;0.36;68.90;98987.63;7371049;19;19925;-62
2024/01/17 05:46:44;;;;;;;;;;;;;;;0.36;68.86;98982.50;7367636;19;20412;-62
2024/01/17 05:49:09;;;;;;;;;;;;;;;0.35;69.09;98978.22;7374537;19;19918;-62
2024/01/17 05:51:34;;;;;;;;;;;;;;;0.32;68.87;98963.69;7378076;19;19935;-62
2024/01/17 05:54:00;;;;;;;;;;;;;;;0.32;69.09;98968.84;7376774;19;20550;-62
2024/01/17 05:56:25;;;;;;;;;;;;;;;0.31;69.13;98972.28;7369853;19;20297;-62
2024/01/17 05:58:50;;;;;;;;;;;;;;;0.32;68.76;98975.69;7369007;19;19918;-61
2024/01/17 06:01:16;;;;;;;;;;;;;;;0.32;69.00;98970.56;7366290;19;19926;-62
2024/01/17 06:03:41;;;;;;;;;;;;;;;0.31;68.70;98966.28;7369598;19;19939;-61
2024/01/17 06:06:07;;;;;;;;;;;;;;;0.30;68.73;98967.97;7372613;19;20357;-62
2024/01/17 06:08:32;;;;;;;;;;;;;;;0.30;69.13;98962.00;7369460;19;19910;-62
2024/01/17 06:10:58;;;;;;;;;;;;;;;0.30;68.98;98964.56;7368071;19;20347;-63
2024/01/17 06:13:23;;;;;;;;;;;;;;;0.28;69.24;98966.31;7360658;19;19932;-62
2024/01/17 06:15:48;;;;;;;;;;;;;;;0.27;69.01;98962.03;7372601;19;20332;-62
2024/01/17 06:18:13;;;;;;;;;;;;;;;0.26;69.05;98953.50;7370809;19;19935;-61
2024/01/17 06:20:39;;;;;;;;;;;;;;;0.24;68.96;98945.78;7369597;19;19925;-61
2024/01/17 06:23:04;;;;;;;;;;;;;;;0.22;69.02;98947.53;7368337;19;21727;-61
2024/01/17 06:25:29;;;;;;;;;;;;;;;0.21;68.77;98950.97;7365609;19;20593;-61
2024/01/17 06:27:56;;;;;;;;;;;;;;;0.19;68.72;98947.53;7368280;19;19952;-62
2024/01/17 06:30:22;;;;;;;;;;;;;;;0.16;69.06;98937.31;7370012;19;20021;-62
2024/01/17 06:32:47;;;;;;;;;;;;;;;0.15;68.79;98940.75;7360243;19;20706;-61
2024/01/17 06:35:13;;;;;;;;;;;;;;;0.13;68.98;98933.94;7369787;19;19937;-62
2024/01/17 06:37:38;;;;;;;;;;;;;;;0.10;68.88;98939.94;7366372;19;19919;-62
2024/01/17 06:40:04;;;;;;;;;;;;;;;0.08;68.64;98936.53;7366087;19;19911;-62
2024/01/17 06:42:29;;;;;;;;;;;;;;;0.07;68.90;98936.56;7370497;19;19911;-62
2024/01/17 06:44:54;;;;;;;;;;;;;;;0.04;68.83;98932.28;7366477;19;19951;-61
2024/01/17 06:47:20;;;;;;;;;;;;;;;0.02;69.04;98925.47;7368380;19;19927;-62
2024/01/17 06:49:45;;;;;;;;;;;;;;;-0.01;68.91;98934.03;7366691;19;20002;-62
2024/01/17 06:52:11;;;;;;;;;;;;;;;-0.03;68.94;98935.78;7364891;19;19998;-62
2024/01/17 06:54:36;;;;;;;;;;;;;;;-0.05;68.94;98922.09;7366641;19;19911;-62
2024/01/17 06:57:01;;;;;;;;;;;;;;;-0.08;68.96;98922.13;7367430;19;19974;-63
2024/01/17 06:59:27;;;;;;;;;;;;;;;-0.10;68.84;98934.09;7364508;19;19946;-62
2024/01/17 07:01:52;;;;;;;;;;;;;;;-0.12;68.77;98920.44;7362383;19;20352;-62
2024/01/17 07:04:17;;;;;;;;;;;;;;;-0.16;69.19;98929.88;7367966;19;19925;-63
2024/01/17 07:06:43;;;;;;;;;;;;;;;-0.17;68.92;98924.78;7367040;19;19982;-61
2024/01/17 07:09:10;;;;;;;;;;;;;;;-0.18;69.13;98912.81;7368750;19;19937;-62
2024/01/17 07:11:37;;;;;;;;;;;;;;;-0.20;69.02;98927.34;7365969;19;19922;-61
2024/01/17 07:14:02;;;;;;;;;;;;;;;-0.22;68.93;98924.81;7365933;19;19927;-62
2024/01/17 07:16:28;;;;;;;;;;;;;;;-0.23;69.24;98932.53;7364293;19;20616;-62
2024/01/17 07:18:53;;;;;;;;;;;;;;;-0.23;69.04;98935.09;7366111;19;19923;-61
2024/01/17 07:21:18;;;;;;;;;;;;;;;-0.27;68.82;98932.53;7363218;19;19919;-62
2024/01/17 07:23:44;;;;;;;;;;;;;;;-0.28;69.06;98933.41;7362475;19;20677;-62
2024/01/17 07:26:09;;;;;;;;;;;;;;;-0.30;68.99;98927.44;7365185;19;20375;-61
2024/01/17 07:28:34;;;;;;;;;;;;;;;-0.30;69.11;98932.56;7370821;19;20697;-62
2024/01/17 07:30:59;;;;;;;;;;;;;;;-0.32;69.12;98931.72;7364545;19;19911;-62
2024/01/17 07:33:25;;;;;;;;;;;;;;;-0.32;69.18;98938.56;7365429;19;19927;-62
2024/01/17 07:35:50;;;;;;;;;;;;;;;-0.33;68.88;98940.28;7367224;19;19934;-61
2024/01/17 07:38:15;;;;;;;;;;;;;;;-0.34;69.35;98943.72;7362020;19;20470;-62
2024/01/17 07:40:41;;;;;;;;;;;;;;;-0.34;69.17;98943.72;7365980;19;19911;-62
2024/01/17 07:43:07;;;;;;;;;;;;;;;-0.35;69.12;98943.72;7364406;19;19922;-62
2024/01/17 07:45:32;;;;;;;;;;;;;;;-0.36;69.00;98942.84;7322778;19;20286;-62
2024/01/17 07:47:57;;;;;;;;;;;;;;;-0.37;69.12;98948.84;7364156;19;20328;-63
2024/01/17 07:50:23;;;;;;;;;;;;;;;-0.39;69.35;98948.03;7363475;19;19915;-61
2024/01/17 07:52:48;;;;;;;;;;;;;;;-0.40;69.30;98943.75;7359088;19;19923;-62
2024/01/17 07:55:15;;;;;;;;;;;;;;;-0.41;69.04;98946.31;7363380;19;19983;-62
2024/01/17 07:57:40;;;;;;;;;;;;;;;-0.43;68.90;98946.34;7355164;19;19922;-62
2024/01/17 08:00:06;;;;;;;;;;;;;;;-0.44;68.82;98948.91;7361005;19;19933;-62
2024/01/17 08:02:32;;;;;;;;;;;;;;;-0.55;68.98;98931.03;7364136;19;19926;-63
2024/01/17 08:04:57;;;;;;;;;;;;;;;-0.48;68.95;98948.06;7362659;19;19936;-63
2024/01/17 08:07:24;;;;;;;;;;;;;;;-0.49;68.91;98950.66;7362236;19;20322;-62
2024/01/17 08:09:53;;;;;;;;;;;;;;;-0.52;69.06;98948.94;7365286;19;20019;-62
2024/01/17 08:12:19;;;;;;;;;;;;;;;-0.54;69.21;98950.69;7362566;19;19923;-63
2024/01/17 08:14:45;;;;;;;;;;;;;;;-0.56;69.33;98954.94;7366680;19;19929;-62
2024/01/17 08:17:10;;;;;;;;;;;;;;;-0.58;68.88;98954.13;7371072;19;20332;-62
2024/01/17 08:19:35;;;;;;;;;;;;;;;-0.60;69.33;98956.69;7372023;19;20001;-62
2024/01/17 08:22:01;;;;;;;;;;;;;;;-0.62;69.19;98957.56;7369830;19;20524;-61
2024/01/17 08:24:26;;;;;;;;;;;;;;;-0.64;68.95;98966.97;7368194;19;19937;-62
2024/01/17 08:26:52;;;;;;;;;;;;;;;-0.69;69.32;98954.19;7363711;19;19928;-61
2024/01/17 08:29:18;;;;;;;;;;;;;;;-0.68;68.89;98957.59;7353630;19;19919;-62
2024/01/17 08:31:43;;;;;;;;;;;;;;;-0.71;69.11;98949.91;7363153;19;20328;-62
2024/01/17 08:34:09;;;;;;;;;;;;;;;-0.72;68.96;98953.34;7362824;19;19925;-60
2024/01/17 08:36:34;;;;;;;;;;;;;;;-0.74;68.97;98949.94;7368670;19;19922;-61
2024/01/17 08:39:00;;;;;;;;;;;;;;;-0.75;69.11;98953.38;7364593;19;19911;-62
2024/01/17 08:41:25;;;;;;;;;;;;;;;-0.77;69.40;98949.94;7363667;19;19926;-62
2024/01/17 08:43:51;;;;;;;;;;;;;;;-0.79;69.07;98950.81;7357858;19;19930;-61
2024/01/17 08:46:16;;;;;;;;;;;;;;;-0.80;69.45;98956.81;7343912;19;19923;-62
2024/01/17 08:48:41;;;;;;;;;;;;;;;-0.81;68.97;98950.00;7362768;19;19911;-62
2024/01/17 08:51:08;;;;;;;;;;;;;;;-0.83;69.23;98951.69;7360765;19;20710;-61
2024/01/17 08:53:33;;;;;;;;;;;;;;;-0.85;69.09;98948.28;7358666;19;20002;-61
2024/01/17 08:56:01;;;;;;;;;;;;;;;-0.85;69.11;98950.00;7365001;19;19987;-61
2024/01/17 08:58:26;;;;;;;;;;;;;;;-0.87;69.37;98944.88;7362811;19;20645;-62
2024/01/17 09:00:51;;;;;;;;;;;;;;;-0.88;69.13;98943.16;7370005;19;19943;-62
2024/01/17 09:03:17;;;;;;;;;;;;;;;-0.88;69.31;98942.31;7364864;19;20316;-62
2024/01/17 09:05:42;;;;;;;;;;;;;;;-0.89;69.32;98946.59;7369258;19;19943;-61
2024/01/17 09:08:07;;;;;;;;;;;;;;;-0.89;69.34;98951.72;7366369;19;19918;-62
2024/01/17 09:10:33;;;;;;;;;;;;;;;-0.87;69.56;98946.59;7364202;19;19919;-62
2024/01/17 09:12:59;;;;;;;;;;;;;;;-0.86;69.59;98945.75;7364098;19;20111;-62
2024/01/17 09:15:24;;;;;;;;;;;;;;;-0.85;69.20;98948.28;7362881;19;20002;-62
2024/01/17 09:17:49;;;;;;;;;;;;;;;-0.82;69.41;98953.38;7365300;19;20695;-62
2024/01/17 09:20:15;;;;;;;;;;;;;;;-0.80;69.39;98956.81;7357447;19;20522;-63
2024/01/17 09:22:40;;;;;;;;;;;;;;;-0.77;69.46;98965.31;7363307;19;19960;-62
2024/01/17 09:25:06;;;;;;;;;;;;;;;-0.74;69.70;98960.19;7358137;19;20317;-62
2024/01/17 09:27:31;;;;;;;;;;;;;;;-0.71;69.43;98967.84;7361481;19;19910;-62
2024/01/17 09:29:56;;;;;;;;;;;;;;;-0.67;69.49;98977.22;7359916;19;19923;-61
2024/01/17 09:32:22;;;;;;;;;;;;;;;-0.62;69.41;98980.63;7367095;19;19922;-61
2024/01/17 09:34:47;;;;;;;;;;;;;;;-0.59;69.32;98976.34;7372149;19;19922;-62
2024/01/17 09:37:16;;;;;;;;;;;;;;;-0.53;69.58;98976.31;7371836;19;19923;-62
2024/01/17 09:39:41;;;;;;;;;;;;;;;-0.44;69.71;98972.84;7361050;19;19922;-62
2024/01/17 09:42:07;;;;;;;;;;;;;;;-0.31;69.99;98983.84;7371324;19;21022;-62
2024/01/17 09:44:33;;;;;;;;;;;;;;;-0.17;69.62;98984.63;7367754;19;19922;-62
2024/01/17 09:47:01;;;;;;;;;;;;;;;-0.01;70.02;98985.34;7367116;19;19922;-61
2024/01/17 09:49:27;;;;;;;;;;;;;;;0.16;69.78;98978.38;7370479;19;20389;-63
2024/01/17 09:51:52;;;;;;;;;;;;;;;0.31;70.02;98976.56;7372805;19;19923;-62
2024/01/17 09:54:18;;;;;;;;;;;;;;;0.49;70.09;98982.34;7363306;19;19984;-62
2024/01/17 09:56:45;;;;;;;;;;;;;;;0.67;69.84;98981.34;7341719;19;19933;-62
2024/01/17 09:59:16;;;;;;;;;;;;;;;0.86;70.03;98983.69;7370796;19;19918;-61
2024/01/17 10:01:43;;;;;;;;;;;;;;;1.04;69.78;98980.91;7369851;19;19944;-62
2024/01/17 10:04:11;;;;;;;;;;;;;;;1.23;69.99;98977.25;7369633;19;19930;-63
2024/01/17 10:06:36;;;;;;;;;;;;;;;1.43;69.82;98989.84;7368242;19;19949;-63
2024/01/17 10:09:02;;;;;;;;;;;;;;;1.61;69.81;98983.59;7367512;19;20451;-62
2024/01/17 10:11:27;;;;;;;;;;;;;;;1.80;69.96;98990.19;7370352;19;21050;-61
2024/01/17 10:13:52;;;;;;;;;;;;;;;2.01;69.72;98993.31;7369137;19;19934;-63
2024/01/17 10:16:17;;;;;;;;;;;;;;;2.19;69.56;98987.88;7368478;19;19927;-62
2024/01/17 10:18:43;;;;;;;;;;;;;;;2.40;69.76;98988.38;7370489;19;20576;-62
2024/01/17 10:21:08;;;;;;;;;;;;;;;2.58;69.46;98985.47;7368658;19;20028;-62
2024/01/17 10:23:36;;;;;;;;;;;;;;;2.79;69.62;98985.09;7368482;19;19918;-62
2024/01/17 10:26:02;;;;;;;;;;;;;;;3.01;69.41;98984.69;7367306;19;20271;-62
2024/01/17 10:28:31;;;;;;;;;;;;;;;3.25;69.27;98986.78;7368032;19;20732;-62
2024/01/17 10:30:56;;;;;;;;;;;;;;;3.52;69.35;98987.06;7365780;19;19975;-61
2024/01/17 10:33:22;;;;;;;;;;;;;;;3.79;69.21;98985.59;7370755;19;19914;-62
2024/01/17 10:35:48;;;;;;;;;;;;;;;4.08;69.04;98992.66;7374909;19;19922;-62
2024/01/17 10:38:14;;;;;;;;;;;;;;;4.36;68.82;98988.53;7365876;19;19988;-62
2024/01/17 10:40:42;;;;;;;;;;;;;;;4.65;68.68;98989.50;7369075;19;19922;-62
2024/01/17 10:43:12;;;;;;;;;;;;;;;4.95;68.70;98987.84;7368322;19;20358;-63
2024/01/17 10:45:38;;;;;;;;;;;;;;;5.25;68.91;98996.50;7367360;19;19990;-64
2024/01/17 10:48:05;;;;;;;;;;;;;;;5.54;68.54;98992.22;7367075;19;19914;-64
2024/01/17 10:50:30;;;;;;;;;;;;;;;5.83;68.58;98989.63;7353745;19;20671;-65
2024/01/17 10:53:08;;;;;;;;;;;;;;;6.14;68.07;98993.88;7359702;19;19922;-64
2024/01/17 10:55:34;;;;;;;;;;;;;;;6.44;67.79;98992.88;7366128;19;19942;-64
2024/01/17 10:58:03;;;;;;;;;;;;;;;6.73;68.04;98998.78;7357683;19;19925;-64
2024/01/17 11:00:34;;;;;;;;;;;;;;;7.02;67.56;98996.03;7365573;19;21214;-64
2024/01/17 11:03:00;;;;;;;;;;;;;;;7.29;67.47;98998.53;7360487;19;20015;-64
2024/01/17 11:05:26;;;;;;;;;;;;;;;7.53;66.99;99001.97;7365554;19;19938;-64
2024/01/17 11:07:52;;;;;;;;;;;;;;;7.77;66.77;99000.22;7363255;19;19918;-64
2024/01/17 11:10:18;;;;;;;;;;;;;;;8.01;66.22;99004.47;7364647;19;19929;-64
2024/01/17 11:12:44;;;;;;;;;;;;;;;8.25;65.99;99006.97;7360851;19;19982;-64
2024/01/17 11:15:10;;;;;;;;;;;;;;;8.38;65.57;98987.41;7362204;19;20345;-64
2024/01/17 11:17:36;;;;;;;;;;;;;;;8.71;65.34;99005.09;7364868;19;19918;-64
2024/01/17 11:20:08;;;;;;;;;;;;;;;8.93;65.46;99000.69;7371601;19;19915;-64
2024/01/17 11:22:34;;;;;;;;;;;;;;;9.18;65.30;99002.22;7364670;19;20340;-64
2024/01/17 11:25:18;;;;;;;;;;;;;;;9.41;64.92;99007.25;7360785;19;19978;-64
2024/01/17 11:27:49;;;;;;;;;;;;;;;9.66;64.91;99001.75;7364696;19;19948;-64
2024/01/17 11:30:18;;;;;;;;;;;;;;;9.92;64.39;99000.53;7364192;19;20592;-64
2024/01/17 11:32:49;;;;;;;;;;;;;;;10.17;64.25;98999.38;7361658;19;19968;-65
2024/01/17 11:35:32;;;;;;;;;;;;;;;10.41;64.19;98995.63;7360222;19;19954;-64
2024/01/17 11:37:58;;;;;;;;;;;;;;;10.69;64.00;98999.44;7356837;19;19923;-64
2024/01/17 11:40:24;;;;;;;;;;;;;;;10.93;64.07;98992.13;7363167;19;19919;-64
2024/01/17 11:42:49;;;;;;;;;;;;;;;11.16;63.96;98995.25;7365467;19;19923;-65
2024/01/17 11:45:15;;;;;;;;;;;;;;;11.39;63.30;98995.81;7360658;19;19940;-64
2024/01/17 11:47:44;;;;;;;;;;;;;;;11.62;63.19;98998.03;7363703;19;19953;-64
2024/01/17 11:50:10;;;;;;;;;;;;;;;11.85;62.97;98995.94;7364701;19;20752;-65
2024/01/17 11:52:37;;;;;;;;;;;;;;;12.07;63.19;98991.22;7358890;19;19925;-64
2024/01/17 11:55:04;;;;;;;;;;;;;;;12.31;62.94;98983.75;7360730;19;19927;-64
2024/01/17 11:57:35;;;;;;;;;;;;;;;12.54;62.32;98981.59;7352601;19;19932;-65
2024/01/17 12:00:12;;;;;;;;;;;;;;;12.78;62.40;98981.94;7363691;19;19919;-65
2024/01/17 12:02:43;;;;;;;;;;;;;;;13.00;61.90;98974.47;7361379;19;19922;-65
2024/01/17 12:05:10;;;;;;;;;;;;;;;13.20;62.20;98981.13;7362438;19;19942;-65
2024/01/17 12:07:41;;;;;;;;;;;;;;;13.39;61.80;98975.63;7364598;19;19930;-64
2024/01/17 12:10:10;;;;;;;;;;;;;;;13.58;61.52;98976.16;7362512;19;19926;-64
2024/01/17 12:12:42;;;;;;;;;;;;;;;13.79;61.02;98978.38;7356346;19;20013;-65
2024/01/17 12:15:10;;;;;;;;;;;;;;;13.99;61.19;98975.34;7355889;19;20684;-64
2024/01/17 12:17:37;;;;;;;;;;;;;;;14.18;61.05;98965.31;7365752;19;20015;-65
2024/01/17 12:20:05;;;;;;;;;;;;;;;14.36;61.46;98970.31;7338448;19;20018;-64
2024/01/17 12:22:31;;;;;;;;;;;;;;;14.52;61.17;98968.38;7356626;19;19926;-65
2024/01/17 12:24:56;;;;;;;;;;;;;;;14.67;60.99;98970.00;7359978;19;20382;-64
2024/01/17 12:27:21;;;;;;;;;;;;;;;14.81;60.99;98961.19;7362442;19;20454;-64
2024/01/17 12:29:50;;;;;;;;;;;;;;;14.92;60.89;98965.72;7362446;19;19923;-65
2024/01/17 12:32:15;;;;;;;;;;;;;;;15.02;60.51;98966.75;7362721;19;19950;-64
2024/01/17 12:34:41;;;;;;;;;;;;;;;15.15;60.39;98967.56;7354254;19;20335;-65
2024/01/17 12:37:06;;;;;;;;;;;;;;;15.29;60.25;98967.47;7354450;19;19927;-64
2024/01/17 12:39:34;;;;;;;;;;;;;;;15.43;60.29;98965.69;7359889;19;19943;-66
2024/01/17 12:41:59;;;;;;;;;;;;;;;15.54;60.03;98968.38;7356786;19;19923;-65
2024/01/17 12:44:25;;;;;;;;;;;;;;;15.63;59.72;98973.03;7362865;19;20633;-64
2024/01/17 12:46:50;;;;;;;;;;;;;;;15.75;59.76;98972.16;7359249;19;19923;-64